createdAt,value
2022-10-15T00:00:51.610Z,100.00
2022-10-15T00:03:19.703Z,100.00
2022-10-15T00:05:47.834Z,100.00
2022-10-15T00:08:17.323Z,100.00
2022-10-15T00:10:45.423Z,100.00
2022-10-15T00:13:13.534Z,100.00
2022-10-15T00:15:41.654Z,100.00
2022-10-15T00:18:09.783Z,100.00
2022-10-15T00:20:37.907Z,100.00
2022-10-15T00:23:11.136Z,100.00
2022-10-15T00:25:42.398Z,100.00
2022-10-15T00:28:10.534Z,100.00
2022-10-15T00:30:38.617Z,100.00
2022-10-15T00:33:06.706Z,100.00
2022-10-15T00:35:34.835Z,100.00
2022-10-15T00:38:03.018Z,100.00
2022-10-15T00:40:31.313Z,100.00
2022-10-15T00:43:12.498Z,100.00
2022-10-15T00:45:40.758Z,100.00
2022-10-15T00:48:09.567Z,100.00
2022-10-15T00:50:38.147Z,100.00
2022-10-15T00:53:08.172Z,100.00
2022-10-15T00:55:38.938Z,100.00
2022-10-15T00:58:09.448Z,100.00
2022-10-15T01:00:39.148Z,100.00
2022-10-15T01:03:08.227Z,100.00
2022-10-15T01:05:37.327Z,100.00
2022-10-15T01:08:05.665Z,100.00
2022-10-15T01:10:40.295Z,100.00
2022-10-15T01:13:14.078Z,100.00
2022-10-15T01:15:48.008Z,100.00
2022-10-15T01:18:17.588Z,100.00
2022-10-15T01:20:53.688Z,100.00
2022-10-15T01:24:11.389Z,100.00
2022-10-15T01:27:14.957Z,100.00
2022-10-15T01:30:05.787Z,100.00
2022-10-15T01:32:37.738Z,100.00
2022-10-15T01:35:11.478Z,100.00
2022-10-15T01:37:42.577Z,100.00
2022-10-15T01:40:17.429Z,100.00
2022-10-15T01:42:48.855Z,100.00
2022-10-15T01:45:21.208Z,100.00
2022-10-15T01:47:54.225Z,100.00
2022-10-15T01:50:25.287Z,100.00
2022-10-15T01:52:55.816Z,100.00
2022-10-15T01:55:25.728Z,100.00
2022-10-15T01:57:55.997Z,100.00
2022-10-15T02:00:24.237Z,100.00
2022-10-15T02:02:53.857Z,100.00
2022-10-15T02:05:25.027Z,100.00
2022-10-15T02:07:58.697Z,100.00
2022-10-15T02:10:30.277Z,100.00
2022-10-15T02:13:06.407Z,100.00
2022-10-15T02:15:38.575Z,100.00
2022-10-15T02:18:12.157Z,100.00
2022-10-15T02:20:46.108Z,100.00
2022-10-15T02:23:19.235Z,100.00
2022-10-15T02:25:48.038Z,100.00
2022-10-15T02:28:17.414Z,100.00
2022-10-15T02:30:48.418Z,100.00
2022-10-15T02:33:18.515Z,100.00
2022-10-15T02:35:47.747Z,100.00
2022-10-15T02:38:19.632Z,100.00
2022-10-15T02:40:48.555Z,100.00
2022-10-15T02:43:17.618Z,100.00
2022-10-15T02:45:45.888Z,100.00
2022-10-15T02:48:14.170Z,100.00
2022-10-15T02:50:43.847Z,100.00
2022-10-15T02:53:12.100Z,100.00
2022-10-15T02:55:40.358Z,100.00
2022-10-15T02:58:09.208Z,100.00
2022-10-15T03:00:37.677Z,100.00
2022-10-15T03:03:06.196Z,100.00
2022-10-15T03:05:36.130Z,100.00
2022-10-15T03:08:06.126Z,100.00
2022-10-15T03:10:34.387Z,100.00
2022-10-15T03:13:04.847Z,100.00
2022-10-15T03:15:32.999Z,100.00
2022-10-15T03:18:01.148Z,100.00
2022-10-15T03:20:29.875Z,100.00
2022-10-15T03:22:58.019Z,100.00
2022-10-15T03:25:27.567Z,100.00
2022-10-15T03:27:56.322Z,100.00
2022-10-15T03:30:24.419Z,100.00
2022-10-15T03:32:52.651Z,100.00
2022-10-15T03:35:20.738Z,100.00
2022-10-15T03:37:48.819Z,100.00
2022-10-15T03:40:17.187Z,100.00
2022-10-15T03:42:46.670Z,100.00
2022-10-15T03:45:15.059Z,100.00
2022-10-15T03:47:43.218Z,100.00
2022-10-15T03:50:12.049Z,100.00
2022-10-15T03:52:40.609Z,100.00
2022-10-15T03:55:10.170Z,100.00
2022-10-15T03:57:38.834Z,100.00
2022-10-15T04:00:11.000Z,100.00
2022-10-15T04:02:39.087Z,100.00
2022-10-15T04:05:07.717Z,100.00
2022-10-15T04:07:35.782Z,100.00
2022-10-15T04:10:04.028Z,100.00
2022-10-15T04:12:32.685Z,100.00
2022-10-15T04:15:00.839Z,100.00
2022-10-15T04:17:30.314Z,100.00
2022-10-15T04:19:58.582Z,100.00
2022-10-15T04:22:26.793Z,100.00
2022-10-15T04:24:55.460Z,100.00
2022-10-15T04:27:23.618Z,100.00
2022-10-15T04:29:51.699Z,100.00
2022-10-15T04:32:19.833Z,100.00
2022-10-15T04:34:49.430Z,100.00
2022-10-15T04:37:17.580Z,100.00
2022-10-15T04:39:45.788Z,100.00
2022-10-15T04:42:13.934Z,100.00
2022-10-15T04:44:42.029Z,100.00
2022-10-15T04:47:10.496Z,100.00
2022-10-15T04:49:38.599Z,100.00
2022-10-15T04:52:08.214Z,100.00
2022-10-15T04:54:36.603Z,100.00
2022-10-15T04:57:04.937Z,100.00
2022-10-15T04:59:33.379Z,100.00
2022-10-15T05:02:01.543Z,100.00
2022-10-15T05:04:29.748Z,100.00
2022-10-15T05:06:57.920Z,100.00
2022-10-15T05:09:27.489Z,100.00
2022-10-15T05:11:56.229Z,100.00
2022-10-15T05:14:25.050Z,100.00
2022-10-15T05:16:53.173Z,100.00
2022-10-15T05:19:21.397Z,100.00
2022-10-15T05:24:22.573Z,100.00
2022-10-15T05:26:52.659Z,100.00
2022-10-15T05:29:20.989Z,100.00
2022-10-15T05:31:51.779Z,100.00
2022-10-15T05:34:19.933Z,100.00
2022-10-15T05:36:48.049Z,100.00
2022-10-15T05:39:16.210Z,100.00
2022-10-15T05:41:44.309Z,100.00
2022-10-15T05:44:13.967Z,100.00
2022-10-15T05:46:42.060Z,100.00
2022-10-15T05:49:10.352Z,100.00
2022-10-15T05:51:39.193Z,100.00
2022-10-15T05:54:07.347Z,100.00
2022-10-15T05:56:35.459Z,100.00
2022-10-15T05:59:04.941Z,100.00
2022-10-15T06:01:34.482Z,100.00
2022-10-15T06:04:02.689Z,100.00
2022-10-15T06:06:30.782Z,100.00
2022-10-15T06:09:02.057Z,100.00
2022-10-15T06:11:30.291Z,100.00
2022-10-15T06:13:58.379Z,100.00
2022-10-15T06:16:26.550Z,100.00
2022-10-15T06:18:56.037Z,100.00
2022-10-15T06:21:24.188Z,100.00
2022-10-15T06:23:52.314Z,100.00
2022-10-15T06:26:20.459Z,100.00
2022-10-15T06:28:48.637Z,100.00
2022-10-15T06:31:16.921Z,100.00
2022-10-15T06:33:45.022Z,100.00
2022-10-15T06:36:14.919Z,100.00
2022-10-15T06:38:44.382Z,100.00
2022-10-15T06:41:12.640Z,100.00
2022-10-15T06:43:40.781Z,100.00
2022-10-15T06:46:08.909Z,100.00
2022-10-15T06:48:39.958Z,100.00
2022-10-15T06:51:08.283Z,100.00
2022-10-15T06:53:40.635Z,100.00
2022-10-15T06:56:09.170Z,100.00
2022-10-15T06:58:37.530Z,100.00
2022-10-15T07:01:07.819Z,100.00
2022-10-15T07:03:36.920Z,100.00
2022-10-15T07:06:06.067Z,100.00
2022-10-15T07:08:34.592Z,100.00
2022-10-15T07:11:04.846Z,100.00
2022-10-15T07:13:33.763Z,100.00
2022-10-15T07:16:05.510Z,100.00
2022-10-15T07:18:33.900Z,100.00
2022-10-15T07:21:02.123Z,100.00
2022-10-15T07:23:30.959Z,100.00
2022-10-15T07:25:59.512Z,100.00
2022-10-15T07:28:29.055Z,100.00
2022-10-15T07:31:02.000Z,100.00
2022-10-15T07:33:30.109Z,100.00
2022-10-15T07:35:58.241Z,100.00
2022-10-15T07:38:26.725Z,100.00
2022-10-15T07:40:58.512Z,100.00
2022-10-15T07:43:26.601Z,100.00
2022-10-15T07:45:56.499Z,100.00
2022-10-15T07:48:25.229Z,100.00
2022-10-15T07:50:56.039Z,100.00
2022-10-15T07:53:24.372Z,100.00
2022-10-15T07:55:52.529Z,100.00
2022-10-15T07:58:21.000Z,100.00
2022-10-15T08:00:49.322Z,100.00
2022-10-15T08:03:19.369Z,100.00
2022-10-15T08:05:47.446Z,100.00
2022-10-15T08:08:15.632Z,100.00
2022-10-15T08:10:43.739Z,100.00
2022-10-15T08:13:12.753Z,100.00
2022-10-15T08:15:40.964Z,100.00
2022-10-15T08:18:10.218Z,100.00
2022-10-15T08:20:39.859Z,100.00
2022-10-15T08:23:15.820Z,100.00
2022-10-15T08:25:43.919Z,100.00
2022-10-15T08:28:13.630Z,100.00
2022-10-15T08:30:41.801Z,100.00
2022-10-15T08:33:09.970Z,100.00
2022-10-15T08:35:43.608Z,100.00
2022-10-15T08:38:14.810Z,100.00
2022-10-15T08:40:49.036Z,100.00
2022-10-15T08:43:22.467Z,100.00
2022-10-15T08:45:52.849Z,100.00
2022-10-15T08:48:25.138Z,100.00
2022-10-15T08:50:58.040Z,100.00
2022-10-15T08:53:27.792Z,100.00
2022-10-15T08:55:58.442Z,100.00
2022-10-15T08:58:30.579Z,100.00
2022-10-15T09:01:02.301Z,100.00
2022-10-15T09:03:36.412Z,100.00
2022-10-15T09:06:12.159Z,100.00
2022-10-15T09:08:46.719Z,100.00
2022-10-15T09:11:19.989Z,100.00
2022-10-15T09:13:48.547Z,100.00
2022-10-15T09:16:18.592Z,100.00
2022-10-15T09:18:48.863Z,100.00
2022-10-15T09:21:18.799Z,100.00
2022-10-15T09:23:46.901Z,100.00
2022-10-15T09:26:25.075Z,100.00
2022-10-15T09:29:00.633Z,100.00
2022-10-15T09:31:32.177Z,100.00
2022-10-15T09:34:04.599Z,100.00
2022-10-15T09:36:38.531Z,100.00
2022-10-15T09:39:18.250Z,100.00
2022-10-15T09:41:53.891Z,100.00
2022-10-15T09:44:23.542Z,100.00
2022-10-15T09:46:52.590Z,100.00
2022-10-15T09:49:23.889Z,100.00
2022-10-15T09:51:59.359Z,100.00
2022-10-15T09:54:35.088Z,100.00
2022-10-15T09:57:03.317Z,100.00
2022-10-15T10:02:07.035Z,100.00
2022-10-15T10:04:38.710Z,100.00
2022-10-15T10:07:09.327Z,100.00
2022-10-15T10:09:39.699Z,100.00
2022-10-15T10:12:09.870Z,100.00
2022-10-15T10:14:46.261Z,100.00
2022-10-15T10:17:18.764Z,100.00
2022-10-15T10:20:03.659Z,100.00
2022-10-15T10:22:46.560Z,100.00
2022-10-15T10:25:36.292Z,100.00
2022-10-15T10:28:17.029Z,100.00
2022-10-15T10:30:53.229Z,100.00
2022-10-15T10:33:27.279Z,100.00
2022-10-15T10:35:55.967Z,100.00
2022-10-15T10:38:26.926Z,100.00
2022-10-15T10:40:58.272Z,100.00
2022-10-15T10:43:28.764Z,100.00
2022-10-15T10:45:59.279Z,100.00
2022-10-15T10:48:29.035Z,100.00
2022-10-15T10:51:09.062Z,100.00
2022-10-15T10:53:49.204Z,100.00
2022-10-15T10:56:21.887Z,100.00
2022-10-15T10:58:50.418Z,100.00
2022-10-15T11:01:18.841Z,100.00
2022-10-15T11:03:48.582Z,100.00
2022-10-15T11:06:32.679Z,100.00
2022-10-15T11:09:10.595Z,100.00
2022-10-15T11:11:43.979Z,100.00
2022-10-15T11:14:21.670Z,100.00
2022-10-15T11:16:55.199Z,100.00
2022-10-15T11:20:05.841Z,100.00
2022-10-15T11:22:29.755Z,100.00
2022-10-15T11:25:08.090Z,100.00
2022-10-15T11:27:48.217Z,100.00
2022-10-15T11:30:28.349Z,100.00
2022-10-15T11:33:08.539Z,100.00
2022-10-15T11:35:55.676Z,100.00
2022-10-15T11:38:30.688Z,100.00
2022-10-15T11:41:15.740Z,100.00
2022-10-15T11:43:58.982Z,100.00
2022-10-15T11:46:29.530Z,100.00
2022-10-15T11:49:07.093Z,100.00
2022-10-15T11:51:42.820Z,100.00
2022-10-15T11:54:23.650Z,100.00
2022-10-15T11:56:55.440Z,92.84
2022-10-15T11:59:36.892Z,83.35
2022-10-15T12:02:11.059Z,82.82
2022-10-15T12:04:42.595Z,85.32
2022-10-15T12:07:15.731Z,79.82
2022-10-15T12:09:48.159Z,79.50
2022-10-15T12:12:27.979Z,81.12
2022-10-15T12:15:06.147Z,79.77
2022-10-15T12:17:44.753Z,82.56
2022-10-15T12:20:15.680Z,87.78
2022-10-15T12:22:56.072Z,90.18
2022-10-15T12:25:45.793Z,89.47
2022-10-15T12:28:23.669Z,95.47
2022-10-15T12:31:02.171Z,90.03
2022-10-15T12:33:35.700Z,90.15
2022-10-15T12:36:09.614Z,92.55
2022-10-15T12:38:39.272Z,98.09
2022-10-15T12:41:09.319Z,92.31
2022-10-15T12:43:42.552Z,95.30
2022-10-15T12:46:12.221Z,92.49
2022-10-15T12:48:42.749Z,90.94
2022-10-15T12:51:41.586Z,98.49
2022-10-15T12:54:35.421Z,90.79
2022-10-15T12:57:06.599Z,90.55
2022-10-15T12:59:58.527Z,83.91
2022-10-15T13:02:45.828Z,85.62
2022-10-15T13:05:26.111Z,86.77
2022-10-15T13:07:56.362Z,91.60
2022-10-15T13:10:28.819Z,96.75
2022-10-15T13:12:58.472Z,99.09
2022-10-15T13:15:29.839Z,96.95
2022-10-15T13:18:00.095Z,88.86
2022-10-15T13:20:34.928Z,80.33
2022-10-15T13:23:25.743Z,77.34
2022-10-15T13:26:13.280Z,77.19
2022-10-15T13:28:43.088Z,76.47
2022-10-15T13:31:22.609Z,78.39
2022-10-15T13:33:55.358Z,80.56
2022-10-15T13:36:25.860Z,84.32
2022-10-15T13:38:58.641Z,90.04
2022-10-15T13:41:29.337Z,92.27
2022-10-15T13:44:01.186Z,97.27
2022-10-15T13:46:32.178Z,98.62
2022-10-15T13:49:02.040Z,100.00
2022-10-15T13:51:34.631Z,100.00
2022-10-15T13:54:04.052Z,100.00
2022-10-15T13:56:33.416Z,100.00
2022-10-15T13:59:02.485Z,100.00
2022-10-15T14:01:35.059Z,100.00
2022-10-15T14:04:04.329Z,100.00
2022-10-15T14:06:33.748Z,100.00
2022-10-15T14:09:03.549Z,100.00
2022-10-15T14:11:32.059Z,100.00
2022-10-15T14:14:00.532Z,100.00
2022-10-15T14:16:32.019Z,100.00
2022-10-15T14:19:10.214Z,100.00
2022-10-15T14:21:39.389Z,100.00
2022-10-15T14:24:08.548Z,100.00
2022-10-15T14:26:36.678Z,100.00
2022-10-15T14:29:05.027Z,100.00
2022-10-15T14:31:41.499Z,100.00
2022-10-15T14:34:31.148Z,100.00
2022-10-15T14:36:59.279Z,100.00
2022-10-15T14:39:30.821Z,100.00
2022-10-15T14:42:00.821Z,100.00
2022-10-15T14:44:42.899Z,100.00
2022-10-15T14:47:21.646Z,100.00
2022-10-15T14:49:50.819Z,100.00
2022-10-15T14:52:21.290Z,100.00
2022-10-15T14:55:03.489Z,100.00
2022-10-15T14:57:33.419Z,100.00
2022-10-15T15:00:02.167Z,100.00
2022-10-15T15:02:31.759Z,100.00
2022-10-15T15:05:10.619Z,100.00
2022-10-15T15:07:38.782Z,100.00
2022-10-15T15:10:09.051Z,100.00
2022-10-15T15:12:37.669Z,100.00
2022-10-15T15:15:07.260Z,100.00
2022-10-15T15:17:36.801Z,100.00
2022-10-15T15:20:05.780Z,100.00
2022-10-15T15:22:35.556Z,100.00
2022-10-15T15:25:06.151Z,100.00
2022-10-15T15:27:37.401Z,100.00
2022-10-15T15:30:06.701Z,100.00
2022-10-15T15:32:36.723Z,100.00
2022-10-15T15:35:18.359Z,100.00
2022-10-15T15:37:46.712Z,100.00
2022-10-15T15:40:14.969Z,100.00
2022-10-15T15:42:43.479Z,100.00
2022-10-15T15:45:20.660Z,100.00
2022-10-15T15:47:50.584Z,100.00
2022-10-15T15:50:20.131Z,100.00
2022-10-15T15:52:48.720Z,100.00
2022-10-15T15:55:16.902Z,100.00
2022-10-15T15:57:45.523Z,100.00
2022-10-15T16:00:15.018Z,100.00
2022-10-15T16:02:43.339Z,100.00
2022-10-15T16:05:14.911Z,100.00
2022-10-15T16:07:43.449Z,100.00
2022-10-15T16:10:12.739Z,100.00
2022-10-15T16:12:41.195Z,100.00
2022-10-15T16:15:13.578Z,100.00
2022-10-15T16:17:43.099Z,100.00
2022-10-15T16:20:13.636Z,100.00
2022-10-15T16:22:42.891Z,100.00
2022-10-15T16:25:11.521Z,100.00
2022-10-15T16:27:39.689Z,100.00
2022-10-15T16:30:08.709Z,100.00
2022-10-15T16:32:37.021Z,100.00
2022-10-15T16:35:05.517Z,100.00
2022-10-15T16:37:35.130Z,100.00
2022-10-15T16:40:03.500Z,100.00
2022-10-15T16:42:31.712Z,100.00
2022-10-15T16:44:59.870Z,100.00
2022-10-15T16:47:28.345Z,100.00
2022-10-15T16:49:56.616Z,100.00
2022-10-15T16:52:25.042Z,100.00
2022-10-15T16:54:54.743Z,100.00
2022-10-15T16:57:22.948Z,100.00
2022-10-15T16:59:51.589Z,100.00
2022-10-15T17:02:20.329Z,100.00
2022-10-15T17:04:48.570Z,100.00
2022-10-15T17:07:16.842Z,100.00
2022-10-15T17:12:22.630Z,100.00
2022-10-15T17:14:52.268Z,100.00
2022-10-15T17:17:20.604Z,100.00
2022-10-15T17:19:48.872Z,100.00
2022-10-15T17:22:17.026Z,100.00
2022-10-15T17:24:45.887Z,100.00
2022-10-15T17:27:14.009Z,100.00
2022-10-15T17:29:45.080Z,100.00
2022-10-15T17:32:13.199Z,100.00
2022-10-15T17:34:42.124Z,100.00
2022-10-15T17:37:10.399Z,100.00
2022-10-15T17:39:38.979Z,100.00
2022-10-15T17:42:07.120Z,100.00
2022-10-15T17:44:35.379Z,100.00
2022-10-15T17:47:04.911Z,100.00
2022-10-15T17:49:33.179Z,100.00
2022-10-15T17:52:01.389Z,100.00
2022-10-15T17:54:29.620Z,100.00
2022-10-15T17:56:57.720Z,100.00
2022-10-15T17:59:26.203Z,100.00
2022-10-15T18:01:59.195Z,100.00
2022-10-15T18:04:30.779Z,100.00
2022-10-15T18:06:59.024Z,100.00
2022-10-15T18:09:28.418Z,100.00
2022-10-15T18:11:57.182Z,100.00
2022-10-15T18:14:25.746Z,100.00
2022-10-15T18:16:54.201Z,100.00
2022-10-15T18:19:22.509Z,100.00
2022-10-15T18:21:52.157Z,100.00
2022-10-15T18:24:22.179Z,100.00
2022-10-15T18:26:51.091Z,100.00
2022-10-15T18:29:19.379Z,100.00
2022-10-15T18:31:48.896Z,100.00
2022-10-15T18:34:19.279Z,100.00
2022-10-15T18:36:47.489Z,100.00
2022-10-15T18:39:17.339Z,100.00
2022-10-15T18:41:45.639Z,100.00
2022-10-15T18:44:16.923Z,100.00
2022-10-15T18:46:45.828Z,100.00
2022-10-15T18:49:15.381Z,100.00
2022-10-15T18:51:43.669Z,100.00
2022-10-15T18:54:11.839Z,100.00
2022-10-15T18:56:41.689Z,100.00
2022-10-15T18:59:12.374Z,100.00
2022-10-15T19:01:43.412Z,100.00
2022-10-15T19:04:13.420Z,100.00
2022-10-15T19:06:43.107Z,100.00
2022-10-15T19:09:13.870Z,100.00
2022-10-15T19:11:44.539Z,100.00
2022-10-15T19:14:13.003Z,100.00
2022-10-15T19:16:41.188Z,100.00
2022-10-15T19:19:09.380Z,100.00
2022-10-15T19:21:37.826Z,100.00
2022-10-15T19:24:06.561Z,100.00
2022-10-15T19:26:35.162Z,100.00
2022-10-15T19:29:04.793Z,100.00
2022-10-15T19:31:35.327Z,100.00
2022-10-15T19:34:03.829Z,100.00
2022-10-15T19:36:34.189Z,100.00
2022-10-15T19:39:04.202Z,100.00
2022-10-15T19:41:32.503Z,100.00
2022-10-15T19:44:00.609Z,100.00
2022-10-15T19:46:30.250Z,100.00
2022-10-15T19:48:58.360Z,100.00
2022-10-15T19:51:41.860Z,100.00
2022-10-15T19:54:10.656Z,100.00
2022-10-15T19:56:39.362Z,100.00
2022-10-15T19:59:08.015Z,100.00
2022-10-15T20:01:37.750Z,100.00
2022-10-15T20:04:07.300Z,100.00
2022-10-15T20:06:37.465Z,100.00
2022-10-15T20:09:06.543Z,100.00
2022-10-15T20:11:34.844Z,100.00
2022-10-15T20:14:04.474Z,100.00
2022-10-15T20:16:33.582Z,100.00
2022-10-15T20:19:04.142Z,100.00
2022-10-15T20:21:32.834Z,100.00
2022-10-15T20:24:04.629Z,100.00
2022-10-15T20:26:33.329Z,100.00
2022-10-15T20:29:01.742Z,100.00
2022-10-15T20:31:33.102Z,100.00
2022-10-15T20:34:03.440Z,100.00
2022-10-15T20:36:31.562Z,100.00
2022-10-15T20:39:01.452Z,100.00
2022-10-15T20:41:29.719Z,100.00
2022-10-15T20:43:58.321Z,100.00
2022-10-15T20:46:29.261Z,100.00
2022-10-15T20:49:08.432Z,100.00
2022-10-15T20:51:38.482Z,100.00
2022-10-15T20:54:07.170Z,100.00
2022-10-15T20:56:35.333Z,100.00
2022-10-15T20:59:04.463Z,100.00
2022-10-15T21:01:32.674Z,100.00
2022-10-15T21:04:01.513Z,100.00
2022-10-15T21:06:35.519Z,100.00
2022-10-15T21:09:03.768Z,100.00
2022-10-15T21:11:31.959Z,100.00
2022-10-15T21:14:00.967Z,100.00
2022-10-15T21:16:29.204Z,100.00
2022-10-15T21:18:57.922Z,100.00
2022-10-15T21:21:26.071Z,100.00
2022-10-15T21:23:55.942Z,100.00
2022-10-15T21:26:24.088Z,100.00
2022-10-15T21:28:56.110Z,100.00
2022-10-15T21:31:24.889Z,100.00
2022-10-15T21:33:53.187Z,100.00
2022-10-15T21:36:22.828Z,100.00
2022-10-15T21:38:56.005Z,100.00
2022-10-15T21:41:24.309Z,100.00
2022-10-15T21:43:52.674Z,100.00
2022-10-15T21:46:20.876Z,100.00
2022-10-15T21:48:49.921Z,100.00
2022-10-15T21:51:19.644Z,100.00
2022-10-15T21:53:48.127Z,100.00
2022-10-15T21:56:18.128Z,100.00
2022-10-15T21:58:46.427Z,100.00
2022-10-15T22:01:19.149Z,100.00
2022-10-15T22:03:50.810Z,100.00
2022-10-15T22:06:20.238Z,100.00
2022-10-15T22:08:48.853Z,100.00
2022-10-15T22:11:20.360Z,100.00
2022-10-15T22:13:50.888Z,100.00
2022-10-15T22:16:20.168Z,100.00
2022-10-15T22:18:52.057Z,100.00
2022-10-15T22:21:21.686Z,100.00
2022-10-15T22:23:52.115Z,100.00
2022-10-15T22:26:23.629Z,100.00
2022-10-15T22:28:53.667Z,100.00
2022-10-15T22:31:22.118Z,100.00
2022-10-15T22:33:50.649Z,100.00
2022-10-15T22:36:20.889Z,100.00
2022-10-15T22:38:53.226Z,100.00
2022-10-15T22:41:23.171Z,100.00
2022-10-15T22:43:52.132Z,100.00
2022-10-15T22:46:20.318Z,100.00
2022-10-15T22:48:49.558Z,100.00
2022-10-15T22:51:18.173Z,100.00
2022-10-15T22:53:46.269Z,100.00
2022-10-15T22:56:16.829Z,100.00
2022-10-15T22:58:46.638Z,100.00
2022-10-15T23:01:16.353Z,100.00
2022-10-15T23:03:46.238Z,100.00
2022-10-15T23:06:14.732Z,100.00
2022-10-15T23:08:43.601Z,100.00
2022-10-15T23:11:13.747Z,100.00
2022-10-15T23:13:42.777Z,100.00
2022-10-15T23:16:14.361Z,100.00
2022-10-15T23:18:43.668Z,100.00
2022-10-15T23:21:16.261Z,100.00
2022-10-15T23:23:45.387Z,100.00
2022-10-15T23:26:14.892Z,100.00
2022-10-15T23:28:43.629Z,100.00
2022-10-15T23:31:18.184Z,100.00
2022-10-15T23:33:46.443Z,100.00
2022-10-15T23:36:15.520Z,100.00
2022-10-15T23:38:43.848Z,100.00
2022-10-15T23:41:12.249Z,100.00
2022-10-15T23:43:40.573Z,100.00
2022-10-15T23:46:09.199Z,100.00
2022-10-15T23:48:38.769Z,100.00
2022-10-15T23:51:13.619Z,100.00
2022-10-15T23:53:41.940Z,100.00
2022-10-15T23:56:10.030Z,100.00
2022-10-15T23:58:38.601Z,100.00
